Time;durP1;ratioP1;P1;durP2;ratioP2;P2;SDS_P1;SDS_P2;PMS_P1;PMS_P2;Temp;Humidity;BMP_temperature;BMP_pressure;BME280_temperature;BME280_humidity;BME280_pressure;Samples;Min_cycle;Max_cycle;Signal;HPM_P1;HPM_P2
2023/06/16 00:01:23;;;;;;;11.63;8.82;;;;;;;-144.57;100.00;62443.72;4955305;29;20051;-66
2023/06/16 00:03:52;;;;;;;14.55;9.02;;;;;;;-144.57;100.00;62443.72;4938196;29;20125;-65
2023/06/16 00:06:19;;;;;;;15.17;9.13;;;;;;;-144.57;100.00;62443.72;4955327;29;20035;-65
2023/06/16 00:08:46;;;;;;;11.50;8.75;;;;;;;-144.57;100.00;62443.72;4955311;29;20083;-66
2023/06/16 00:11:13;;;;;;;13.18;7.75;;;;;;;-144.57;100.00;62443.72;4938087;29;20055;-66
2023/06/16 00:13:39;;;;;;;13.13;8.23;;;;;;;-144.57;100.00;62443.72;4937994;29;20035;-65
2023/06/16 00:16:05;;;;;;;12.43;9.13;;;;;;;-144.57;100.00;62443.72;4940975;29;20039;-66
2023/06/16 00:18:31;;;;;;;11.27;8.70;;;;;;;-144.57;100.00;62443.72;4955059;29;20047;-65
2023/06/16 00:21:02;;;;;;;13.27;8.15;;;;;;;-144.57;100.00;62443.72;4936454;29;20133;-66
2023/06/16 00:23:27;;;;;;;;;;;;;;;-144.57;100.00;62443.72;4937026;29;20480;-65
2023/06/16 00:25:53;;;;;;;13.00;8.35;;;;;;;-144.57;100.00;62443.72;4937025;29;19927;-66
2023/06/16 00:28:19;;;;;;;12.40;8.90;;;;;;;-144.57;100.00;62443.72;4950586;29;20031;-65
2023/06/16 00:30:46;;;;;;;13.95;8.27;;;;;;;-144.57;100.00;62443.72;4953378;29;20521;-66
2023/06/16 00:33:12;;;;;;;17.05;8.82;;;;;;;-144.57;100.00;62443.72;4952982;29;20055;-66
2023/06/16 00:35:40;;;;;;;11.73;8.40;;;;;;;-144.57;100.00;62443.72;4950223;29;20410;-66
2023/06/16 00:38:05;;;;;;;12.80;8.95;;;;;;;-144.57;100.00;62443.72;4953579;29;20038;-66
2023/06/16 00:40:31;;;;;;;12.27;8.60;;;;;;;-144.57;100.00;62443.72;4936575;29;20552;-66
2023/06/16 00:42:58;;;;;;;13.82;8.38;;;;;;;-144.57;100.00;62443.72;4954904;29;20086;-66
2023/06/16 00:45:24;;;;;;;14.25;8.45;;;;;;;-144.57;100.00;62443.72;4953682;28;20043;-66
2023/06/16 00:47:51;;;;;;;9.88;8.10;;;;;;;-144.57;100.00;62443.72;4953688;29;20050;-66
2023/06/16 00:50:18;;;;;;;10.23;7.95;;;;;;;-144.57;100.00;62443.72;4953385;29;20485;-65
2023/06/16 00:52:44;;;;;;;14.38;8.55;;;;;;;-144.57;100.00;62443.72;4934579;29;20047;-67
2023/06/16 00:55:11;;;;;;;10.32;8.60;;;;;;;-144.57;100.00;62443.72;4953242;29;20401;-66
2023/06/16 00:57:38;;;;;;;9.10;7.78;;;;;;;-144.57;100.00;62443.72;4920447;29;20047;-65
2023/06/16 01:00:12;;;;;;;12.77;8.10;;;;;;;-144.57;100.00;62443.72;4935882;29;20170;-66
2023/06/16 01:02:38;;;;;;;10.38;7.75;;;;;;;-144.57;100.00;62443.72;4953221;29;20426;-66
2023/06/16 01:05:07;;;;;;;13.18;8.20;;;;;;;-144.57;100.00;62443.72;4943931;29;20035;-66
2023/06/16 01:07:40;;;;;;;10.85;8.45;;;;;;;-144.57;100.00;62443.72;4936436;29;20039;-66
2023/06/16 01:10:28;;;;;;;18.17;10.77;;;;;;;-144.57;100.00;62443.72;4934534;29;20058;-65
2023/06/16 01:13:18;;;;;;;20.02;13.07;;;;;;;-144.57;100.00;62443.72;4921132;29;20067;-66
2023/06/16 01:15:45;;;;;;;16.27;11.18;;;;;;;-144.57;100.00;62443.72;4936808;29;20153;-66
2023/06/16 01:18:14;;;;;;;27.40;16.17;;;;;;;-144.57;100.00;62443.72;4936738;29;20074;-66
2023/06/16 01:20:51;;;;;;;24.85;14.25;;;;;;;-144.57;100.00;62443.72;4936619;29;20055;-66
2023/06/16 01:23:56;;;;;;;14.35;8.57;;;;;;;-144.57;100.00;62443.72;4937053;29;20054;-66
2023/06/16 01:26:22;;;;;;;16.75;9.07;;;;;;;-144.57;100.00;62443.72;4952809;29;20142;-65
2023/06/16 01:28:50;;;;;;;12.70;8.07;;;;;;;-144.57;100.00;62443.72;4921119;29;20043;-65
2023/06/16 01:31:17;;;;;;;15.63;9.48;;;;;;;-144.57;100.00;62443.72;4933516;29;20067;-65
2023/06/16 01:33:44;;;;;;;14.73;8.77;;;;;;;-144.57;100.00;62443.72;4917607;29;20071;-66
2023/06/16 01:36:11;;;;;;;11.98;8.50;;;;;;;-144.57;100.00;62443.72;4933422;29;20048;-65
2023/06/16 01:38:37;;;;;;;12.73;8.68;;;;;;;-144.57;100.00;62443.72;4933291;29;20055;-66
2023/06/16 01:41:03;;;;;;;14.75;8.90;;;;;;;-144.57;100.00;62443.72;4934367;29;20514;-66
2023/06/16 01:43:30;;;;;;;12.70;8.70;;;;;;;-144.57;100.00;62443.72;4933015;29;20043;-66
2023/06/16 01:45:58;;;;;;;13.40;8.38;;;;;;;-144.57;100.00;62443.72;4940352;29;20059;-66
2023/06/16 01:48:23;;;;;;;11.60;9.02;;;;;;;-144.57;100.00;62443.72;4916116;29;20126;-65
2023/06/16 01:50:50;;;;;;;13.02;9.18;;;;;;;-144.57;100.00;62443.72;4932455;29;20194;-66
2023/06/16 01:53:16;;;;;;;16.15;9.93;;;;;;;-144.57;100.00;62443.72;4915751;29;20044;-66
2023/06/16 01:55:51;;;;;;;15.32;9.68;;;;;;;-144.57;100.00;62443.72;4931781;29;20537;-65
2023/06/16 01:58:20;;;;;;;11.75;8.52;;;;;;;-144.57;100.00;62443.72;4931383;29;20039;-66
2023/06/16 02:00:59;;;;;;;12.88;7.93;;;;;;;-144.57;100.00;62443.72;4931900;29;20518;-65
2023/06/16 02:03:35;;;;;;;10.93;8.13;;;;;;;-144.57;100.00;62443.72;4915955;29;20096;-66
2023/06/16 02:06:04;;;;;;;11.80;8.20;;;;;;;-144.57;100.00;62443.72;4933965;29;20291;-66
2023/06/16 02:08:32;;;;;;;10.88;8.73;;;;;;;-144.57;100.00;62443.72;4933196;29;20044;-66
2023/06/16 02:10:58;;;;;;;12.30;8.85;;;;;;;-144.57;100.00;62443.72;4932688;29;20055;-66
2023/06/16 02:13:24;;;;;;;14.52;8.77;;;;;;;-144.57;100.00;62443.72;4930488;29;20040;-66
2023/06/16 02:15:49;;;;;;;11.57;8.50;;;;;;;-144.57;100.00;62443.72;4931717;29;20075;-65
2023/06/16 02:18:24;;;;;;;11.25;8.43;;;;;;;-144.57;100.00;62443.72;4931560;29;20052;-66
2023/06/16 02:21:10;;;;;;;10.93;8.25;;;;;;;-144.57;100.00;62443.72;4918772;29;20554;-67
2023/06/16 02:23:35;;;;;;;10.40;9.10;;;;;;;-144.57;100.00;62443.72;4932906;29;20044;-65
2023/06/16 02:26:01;;;;;;;11.80;8.82;;;;;;;-144.57;100.00;62443.72;4917287;29;20050;-66
2023/06/16 02:28:26;;;;;;;12.32;9.38;;;;;;;-144.57;100.00;62443.72;4932805;29;20040;-66
2023/06/16 02:30:52;;;;;;;9.75;8.43;;;;;;;-144.57;100.00;62443.72;4932753;29;20091;-66
2023/06/16 02:33:18;;;;;;;10.40;8.25;;;;;;;-144.57;100.00;62443.72;4932569;29;20502;-65
2023/06/16 02:35:43;;;;;;;9.77;8.77;;;;;;;-144.57;100.00;62443.72;4932610;29;20421;-66
2023/06/16 02:38:09;;;;;;;14.07;8.52;;;;;;;-144.57;100.00;62443.72;4932612;29;20094;-66
2023/06/16 02:40:35;;;;;;;12.75;8.82;;;;;;;-144.57;100.00;62443.72;4931215;29;20250;-67
2023/06/16 02:43:01;;;;;;;12.55;8.20;;;;;;;-144.57;100.00;62443.72;4931328;29;20130;-66
2023/06/16 02:45:26;;;;;;;12.15;8.02;;;;;;;-144.57;100.00;62443.72;4932541;29;20044;-66
2023/06/16 02:47:52;;;;;;;13.90;8.82;;;;;;;-144.57;100.00;62443.72;4931503;29;20613;-66
2023/06/16 02:50:18;;;;;;;11.75;8.57;;;;;;;-144.57;100.00;62443.72;4930963;29;20138;-66
2023/06/16 02:52:44;;;;;;;14.32;9.15;;;;;;;-144.57;100.00;62443.72;4938616;29;20525;-66
2023/06/16 02:55:15;;;;;;;11.45;8.23;;;;;;;-144.57;100.00;62443.72;4932146;29;20063;-65
2023/06/16 02:57:46;;;;;;;10.93;8.20;;;;;;;-144.57;100.00;62443.72;4932146;29;20052;-67
2023/06/16 03:00:12;;;;;;;16.42;8.57;;;;;;;-144.57;100.00;62443.72;4931166;29;20051;-66
2023/06/16 03:02:57;;;;;;;14.38;9.07;;;;;;;-144.57;100.00;62443.72;4930232;29;20134;-66
2023/06/16 03:05:27;;;;;;;15.32;9.05;;;;;;;-144.57;100.00;62443.72;4931271;29;20147;-66
2023/06/16 03:07:54;;;;;;;11.57;8.95;;;;;;;-144.57;100.00;62443.72;4932182;29;20056;-66
2023/06/16 03:10:22;;;;;;;13.40;8.90;;;;;;;-144.57;100.00;62443.72;4903789;29;20439;-67
2023/06/16 03:13:02;;;;;;;9.57;8.57;;;;;;;-144.57;100.00;62443.72;4935597;29;20135;-66
2023/06/16 03:15:30;;;;;;;10.57;8.45;;;;;;;-144.57;100.00;62443.72;4937136;29;20139;-67
2023/06/16 03:17:56;;;;;;;10.90;8.50;;;;;;;-144.57;100.00;62443.72;4935618;29;20048;-65
2023/06/16 03:20:22;;;;;;;11.02;8.73;;;;;;;-144.57;100.00;62443.72;4919856;29;20054;-66
2023/06/16 03:23:01;;;;;;;9.82;8.35;;;;;;;-144.57;100.00;62443.72;4935728;29;20510;-66
2023/06/16 03:25:32;;;;;;;9.93;8.07;;;;;;;-144.57;100.00;62443.72;4935688;29;20043;-66
2023/06/16 03:27:59;;;;;;;12.07;8.75;;;;;;;-144.57;100.00;62443.72;4937085;29;20043;-66
2023/06/16 03:30:25;;;;;;;10.77;7.75;;;;;;;-144.57;100.00;62443.72;4941471;29;20426;-65
2023/06/16 03:33:01;;;;;;;11.90;8.05;;;;;;;-144.57;100.00;62443.72;4938809;29;20130;-66
2023/06/16 03:35:29;;;;;;;10.18;7.93;;;;;;;-144.57;100.00;62443.72;4938733;29;20183;-67
2023/06/16 03:37:57;;;;;;;10.35;7.68;;;;;;;-144.57;100.00;62443.72;4951638;29;20051;-67
2023/06/16 03:40:23;;;;;;;14.25;8.30;;;;;;;-144.57;100.00;62443.72;4937360;29;20043;-67
2023/06/16 03:42:49;;;;;;;12.40;8.18;;;;;;;-144.57;100.00;62443.72;4937358;29;20043;-67
2023/06/16 03:45:15;;;;;;;11.25;8.32;;;;;;;-144.57;100.00;62443.72;4954568;29;20046;-66
2023/06/16 03:47:41;;;;;;;14.43;8.23;;;;;;;-144.57;100.00;62443.72;4937188;29;20039;-64
2023/06/16 03:50:08;;;;;;;12.02;8.43;;;;;;;-144.57;100.00;62443.72;4947774;29;20346;-60
2023/06/16 03:52:37;;;;;;;11.00;8.10;;;;;;;-144.57;100.00;62443.72;4936580;29;20381;-62
2023/06/16 03:55:03;;;;;;;14.05;8.15;;;;;;;-144.57;100.00;62443.72;4945019;28;20078;-61
2023/06/16 03:57:29;;;;;;;10.32;8.32;;;;;;;-144.57;100.00;62443.72;4937097;29;20090;-61
2023/06/16 03:59:55;;;;;;;14.07;8.55;;;;;;;-144.57;100.00;62443.72;4936525;29;20055;-61
2023/06/16 04:02:20;;;;;;;12.32;8.13;;;;;;;-144.57;100.00;62443.72;4936830;29;20075;-62
2023/06/16 04:04:47;;;;;;;12.40;8.13;;;;;;;-144.57;100.00;62443.72;4936894;29;20394;-61
2023/06/16 04:07:17;;;;;;;11.25;8.75;;;;;;;-144.57;100.00;62443.72;4946570;29;20075;-61
2023/06/16 04:09:43;;;;;;;11.18;7.65;;;;;;;-144.57;100.00;62443.72;4922530;29;20575;-61
2023/06/16 04:12:09;;;;;;;9.85;8.02;;;;;;;-144.57;100.00;62443.72;4920684;29;20137;-61
2023/06/16 04:14:36;;;;;;;12.23;8.05;;;;;;;-144.57;100.00;62443.72;4946554;29;20061;-60
2023/06/16 04:17:02;;;;;;;9.85;8.20;;;;;;;-144.57;100.00;62443.72;4936707;29;20039;-61
2023/06/16 04:19:28;;;;;;;13.27;8.40;;;;;;;-144.57;100.00;62443.72;4953690;28;20050;-61
2023/06/16 04:21:55;;;;;;;11.93;8.38;;;;;;;-144.57;100.00;62443.72;4936445;29;20413;-62
2023/06/16 04:24:24;;;;;;;;;;;;;;;-144.57;100.00;62443.72;4937256;29;20122;-62
2023/06/16 04:26:52;;;;;;;10.82;7.45;;;;;;;-144.57;100.00;62443.72;4953243;29;19974;-62
2023/06/16 04:29:20;;;;;;;10.52;7.75;;;;;;;-144.57;100.00;62443.72;4953827;29;20035;-61
2023/06/16 04:31:48;;;;;;;10.35;8.02;;;;;;;-144.57;100.00;62443.72;4944554;29;20512;-61
2023/06/16 04:34:14;;;;;;;12.52;7.88;;;;;;;-144.57;100.00;62443.72;4930537;29;20132;-61
2023/06/16 04:36:41;;;;;;;9.60;7.95;;;;;;;-144.57;100.00;62443.72;4943558;29;20567;-62
2023/06/16 04:39:17;;;;;;;9.40;7.55;;;;;;;-144.57;100.00;62443.72;4943955;29;20042;-62
2023/06/16 04:41:44;;;;;;;11.45;7.60;;;;;;;-144.57;100.00;62443.72;4935716;29;20281;-61
2023/06/16 04:44:11;;;;;;;11.23;7.68;;;;;;;-144.57;100.00;62443.72;4936867;29;20039;-61
2023/06/16 04:46:38;;;;;;;11.85;6.95;;;;;;;-144.57;100.00;62443.72;4937196;29;20070;-62
2023/06/16 04:49:04;;;;;;;8.65;7.55;;;;;;;-144.57;100.00;62443.72;4936481;29;20117;-61
2023/06/16 04:51:30;;;;;;;10.38;7.07;;;;;;;-144.57;100.00;62443.72;4936203;29;20520;-65
2023/06/16 04:53:56;;;;;;;12.65;8.20;;;;;;;-144.57;100.00;62443.72;4936637;29;20075;-61
2023/06/16 04:56:22;;;;;;;10.88;7.20;;;;;;;-144.57;100.00;62443.72;4936759;29;20051;-62
2023/06/16 04:58:48;;;;;;;13.02;7.72;;;;;;;-144.57;100.00;62443.72;4953410;29;20058;-61
2023/06/16 05:01:13;;;;;;;10.73;7.70;;;;;;;-144.57;100.00;62443.72;4953357;29;20043;-61
2023/06/16 05:03:39;;;;;;;9.02;7.47;;;;;;;-144.57;100.00;62443.72;4936077;29;20047;-61
2023/06/16 05:06:05;;;;;;;10.07;7.38;;;;;;;-144.57;100.00;62443.72;4936223;29;20636;-61
2023/06/16 05:08:32;;;;;;;9.90;7.00;;;;;;;-144.57;100.00;62443.72;4927434;29;20405;-60
2023/06/16 05:10:58;;;;;;;9.63;7.20;;;;;;;-144.57;100.00;62443.72;4920372;29;20050;-60
2023/06/16 05:13:24;;;;;;;8.93;6.80;;;;;;;-144.57;100.00;62443.72;4953198;29;20050;-61
2023/06/16 05:15:50;;;;;;;9.00;7.13;;;;;;;-144.57;100.00;62443.72;4927227;29;20457;-61
2023/06/16 05:18:16;;;;;;;18.00;7.53;;;;;;;-144.57;100.00;62443.72;4936038;29;20069;-61
2023/06/16 05:20:42;;;;;;;7.18;6.05;;;;;;;-144.57;100.00;62443.72;4928584;29;20540;-61
2023/06/16 05:23:09;;;;;;;7.13;6.38;;;;;;;-144.57;100.00;62443.72;4920417;29;20039;-62
2023/06/16 05:25:35;;;;;;;10.27;6.30;;;;;;;-144.57;100.00;62443.72;4953553;29;20046;-62
2023/06/16 05:28:04;;;;;;;7.30;6.13;;;;;;;-144.57;100.00;62443.72;4954011;29;20039;-66
2023/06/16 05:30:30;;;;;;;7.50;5.72;;;;;;;-144.57;100.00;62443.72;4935062;29;20059;-62
2023/06/16 05:32:56;;;;;;;10.48;5.88;;;;;;;-144.57;100.00;62443.72;4935112;29;20046;-61
2023/06/16 05:35:21;;;;;;;8.65;6.20;;;;;;;-144.57;100.00;62443.72;4918606;29;20047;-61
2023/06/16 05:37:47;;;;;;;11.40;5.68;;;;;;;-144.57;100.00;62443.72;4950283;29;20085;-61
2023/06/16 05:40:13;;;;;;;7.55;5.78;;;;;;;-144.57;100.00;62443.72;4933296;29;20039;-62
2023/06/16 05:42:38;;;;;;;7.57;6.15;;;;;;;-144.57;100.00;62443.72;4939122;29;20039;-63
2023/06/16 05:45:06;;;;;;;10.93;6.50;;;;;;;-144.57;100.00;62443.72;4942566;28;20074;-61
2023/06/16 05:47:32;;;;;;;8.57;5.57;;;;;;;-144.57;100.00;62443.72;4916665;29;20043;-60
2023/06/16 05:49:59;;;;;;;8.77;6.22;;;;;;;-144.57;100.00;62443.72;4941029;29;20062;-59
2023/06/16 05:52:25;;;;;;;7.55;6.22;;;;;;;-144.57;100.00;62443.72;4941283;29;20053;-60
2023/06/16 05:54:53;;;;;;;7.65;5.97;;;;;;;-144.57;100.00;62443.72;4940000;29;20090;-61
2023/06/16 05:57:27;;;;;;;8.35;6.18;;;;;;;-144.57;100.00;62443.72;4948602;29;20055;-60
2023/06/16 05:59:53;;;;;;;9.38;6.57;;;;;;;-144.57;100.00;62443.72;4916085;29;20113;-61
2023/06/16 06:02:19;;;;;;;9.63;6.50;;;;;;;-144.57;100.00;62443.72;4931673;29;20509;-61
2023/06/16 06:04:45;;;;;;;8.90;6.43;;;;;;;-144.57;100.00;62443.72;4939799;29;20130;-60
2023/06/16 06:07:11;;;;;;;7.10;6.30;;;;;;;-144.57;100.00;62443.72;4951178;29;20174;-62
2023/06/16 06:09:37;;;;;;;6.80;5.97;;;;;;;-144.57;100.00;62443.72;4933879;29;20049;-60
2023/06/16 06:12:03;;;;;;;7.32;5.70;;;;;;;-144.57;100.00;62443.72;4932584;29;20046;-60
2023/06/16 06:14:30;;;;;;;6.65;5.15;;;;;;;-144.57;100.00;62443.72;4944163;29;20102;-60
2023/06/16 06:16:58;;;;;;;7.18;5.72;;;;;;;-144.57;100.00;62443.72;4932978;29;20047;-62
2023/06/16 06:19:24;;;;;;;7.68;6.10;;;;;;;-144.57;100.00;62443.72;4950872;29;20209;-61
2023/06/16 06:21:50;;;;;;;7.10;5.18;;;;;;;-144.57;100.00;62443.72;4934159;29;20061;-62
2023/06/16 06:24:16;;;;;;;7.80;5.70;;;;;;;-144.57;100.00;62443.72;4951196;29;20126;-59
2023/06/16 06:26:43;;;;;;;6.38;5.70;;;;;;;-144.57;100.00;62443.72;4942578;28;20047;-60
2023/06/16 06:29:09;;;;;;;7.10;5.53;;;;;;;-144.57;100.00;62443.72;4933703;29;20426;-60
2023/06/16 06:31:35;;;;;;;8.38;6.10;;;;;;;-144.57;100.00;62443.72;4927458;29;20406;-60
2023/06/16 06:34:02;;;;;;;7.40;5.53;;;;;;;-144.57;100.00;62443.72;4934253;29;20038;-60
2023/06/16 06:36:28;;;;;;;7.07;5.85;;;;;;;-144.57;100.00;62443.72;4934198;29;20134;-62
2023/06/16 06:38:56;;;;;;;8.55;6.60;;;;;;;-144.57;100.00;62443.72;4942564;29;20433;-61
2023/06/16 06:41:23;;;;;;;7.90;5.40;;;;;;;-144.57;100.00;62443.72;4925982;29;20146;-62
2023/06/16 06:43:52;;;;;;;7.70;5.53;;;;;;;-144.57;100.00;62443.72;4935971;29;20039;-59
2023/06/16 06:46:37;;;;;;;9.40;5.80;;;;;;;-144.57;100.00;62443.72;4941189;29;20059;-63
2023/06/16 06:49:03;;;;;;;7.38;5.38;;;;;;;-144.57;100.00;62443.72;4937039;29;20050;-61
2023/06/16 06:51:31;;;;;;;6.18;5.10;;;;;;;-144.57;100.00;62443.72;4923270;29;20051;-62
2023/06/16 06:53:57;;;;;;;6.25;5.30;;;;;;;-144.57;100.00;62443.72;4939239;29;20414;-62
2023/06/16 06:56:22;;;;;;;5.65;5.13;;;;;;;-144.57;100.00;62443.72;4954623;29;20047;-64
2023/06/16 06:58:48;;;;;;;7.90;4.80;;;;;;;-144.57;100.00;62443.72;4954503;29;20517;-61
2023/06/16 07:01:14;;;;;;;6.57;5.22;;;;;;;-144.57;100.00;62443.72;4936208;29;20057;-63
2023/06/16 07:03:40;;;;;;;8.18;5.63;;;;;;;-144.57;100.00;62443.72;4937478;29;20094;-63
2023/06/16 07:06:06;;;;;;;7.85;6.05;;;;;;;-144.57;100.00;62443.72;4954864;29;20048;-63
2023/06/16 07:08:31;;;;;;;6.00;5.38;;;;;;;-144.57;100.00;62443.72;4944136;29;20134;-62
2023/06/16 07:10:58;;;;;;;8.35;6.18;;;;;;;-144.57;100.00;62443.72;4945227;29;20133;-64
2023/06/16 07:13:24;;;;;;;7.25;5.80;;;;;;;-144.57;100.00;62443.72;4954231;29;20050;-60
2023/06/16 07:15:49;;;;;;;8.02;5.80;;;;;;;-144.57;100.00;62443.72;4953258;29;20043;-61
2023/06/16 07:18:15;;;;;;;7.20;5.82;;;;;;;-144.57;100.00;62443.72;4935362;29;20390;-60
2023/06/16 07:20:41;;;;;;;8.50;6.50;;;;;;;-144.57;100.00;62443.72;4954393;29;20047;-61
2023/06/16 07:23:07;;;;;;;7.38;6.15;;;;;;;-144.57;100.00;62443.72;4954169;29;20127;-61
2023/06/16 07:25:36;;;;;;;12.15;6.93;;;;;;;-144.57;100.00;62443.72;4934743;29;20043;-62
2023/06/16 07:28:03;;;;;;;9.80;7.53;;;;;;;-144.57;100.00;62443.72;4934772;29;20047;-62
2023/06/16 07:30:29;;;;;;;7.80;6.10;;;;;;;-144.57;100.00;62443.72;4952104;29;20413;-61
2023/06/16 07:32:55;;;;;;;6.80;6.10;;;;;;;-144.57;100.00;62443.72;4953211;29;20047;-61
2023/06/16 07:35:21;;;;;;;6.47;5.78;;;;;;;-144.57;100.00;62443.72;4935802;29;20496;-67
2023/06/16 07:37:47;;;;;;;6.07;5.47;;;;;;;-144.57;100.00;62443.72;4952344;29;20047;-62
2023/06/16 07:40:13;;;;;;;6.30;5.68;;;;;;;-144.57;100.00;62443.72;4952098;29;20098;-62
2023/06/16 07:42:45;;;;;;;5.95;5.45;;;;;;;-144.57;100.00;62443.72;4953076;29;20493;-65
2023/06/16 07:45:12;;;;;;;7.93;5.43;;;;;;;-144.57;100.00;62443.72;4953754;29;20066;-61
2023/06/16 07:47:39;;;;;;;5.97;5.38;;;;;;;-144.57;100.00;62443.72;4953049;29;20054;-61
2023/06/16 07:50:07;;;;;;;5.32;4.82;;;;;;;-144.57;100.00;62443.72;4954189;29;20066;-62
2023/06/16 07:52:32;;;;;;;6.75;5.13;;;;;;;-144.57;100.00;62443.72;4953966;29;20137;-62
2023/06/16 07:54:59;;;;;;;7.53;5.32;;;;;;;-144.57;100.00;62443.72;4952977;28;20493;-61
2023/06/16 07:57:25;;;;;;;6.68;5.45;;;;;;;-144.57;100.00;62443.72;4954685;29;20055;-63
2023/06/16 07:59:51;;;;;;;5.47;4.97;;;;;;;-144.57;100.00;62443.72;4955151;29;20047;-61
2023/06/16 08:02:16;;;;;;;8.60;5.38;;;;;;;-144.57;100.00;62443.72;4952517;29;20051;-65
2023/06/16 08:04:42;;;;;;;6.78;5.15;;;;;;;-144.57;100.00;62443.72;4953505;29;20051;-63
2023/06/16 08:07:08;;;;;;;6.32;5.55;;;;;;;-144.57;100.00;62443.72;4936773;29;20541;-63
2023/06/16 08:09:34;;;;;;;8.38;5.53;;;;;;;-144.57;100.00;62443.72;4953512;29;20051;-61
2023/06/16 08:11:59;;;;;;;6.55;5.18;;;;;;;-144.57;100.00;62443.72;4954561;29;20141;-63
2023/06/16 08:14:27;;;;;;;6.03;5.43;;;;;;;-144.57;100.00;62443.72;4954610;29;20493;-61
2023/06/16 08:16:53;;;;;;;8.45;5.00;;;;;;;-144.57;100.00;62443.72;4954708;29;20501;-62
2023/06/16 08:19:18;;;;;;;9.23;5.47;;;;;;;-144.57;100.00;62443.72;4954010;29;20093;-62
2023/06/16 08:21:44;;;;;;;5.75;5.13;;;;;;;-144.57;100.00;62443.72;4954471;28;20085;-63
2023/06/16 08:24:10;;;;;;;6.47;5.68;;;;;;;-144.57;100.00;62443.72;4954104;29;20047;-63
2023/06/16 08:26:35;;;;;;;6.10;5.50;;;;;;;-144.57;100.00;62443.72;4953854;29;20493;-62
2023/06/16 08:29:03;;;;;;;5.18;4.68;;;;;;;-144.57;100.00;62443.72;4936551;29;20046;-61
2023/06/16 08:31:28;;;;;;;5.28;4.78;;;;;;;-144.57;100.00;62443.72;4953496;29;20160;-61
2023/06/16 08:33:55;;;;;;;5.90;5.30;;;;;;;-144.57;100.00;62443.72;4935633;29;20059;-63
2023/06/16 08:36:23;;;;;;;6.47;4.90;;;;;;;-144.57;100.00;62443.72;4954078;29;20054;-62
2023/06/16 08:38:48;;;;;;;6.28;5.15;;;;;;;-144.57;100.00;62443.72;4936904;29;20050;-62
2023/06/16 08:41:16;;;;;;;5.78;5.18;;;;;;;-144.57;100.00;62443.72;4953748;29;20454;-61
2023/06/16 08:43:43;;;;;;;6.45;4.68;;;;;;;-144.57;100.00;62443.72;4936868;29;20071;-62
2023/06/16 08:46:09;;;;;;;6.68;5.32;;;;;;;-144.57;100.00;62443.72;4954377;29;20134;-62
2023/06/16 08:48:37;;;;;;;6.95;5.30;;;;;;;-144.57;100.00;62443.72;4935709;29;20555;-63
2023/06/16 08:51:14;;;;;;;5.60;5.05;;;;;;;-144.57;100.00;62443.72;4953381;29;20054;-62
2023/06/16 08:53:41;;;;;;;7.53;5.20;;;;;;;-144.57;100.00;62443.72;4953721;29;20035;-61
2023/06/16 08:56:09;;;;;;;8.02;5.32;;;;;;;-144.57;100.00;62443.72;4953456;29;20098;-61
2023/06/16 08:58:35;;;;;;;6.95;5.63;;;;;;;-144.57;100.00;62443.72;4935366;29;20045;-63
2023/06/16 09:01:02;;;;;;;8.05;5.65;;;;;;;-144.57;100.00;62443.72;4921109;29;20043;-62
2023/06/16 09:03:32;;;;;;;7.15;5.60;;;;;;;-144.57;100.00;62443.72;4953270;29;20039;-62
2023/06/16 09:06:01;;;;;;;6.72;5.65;;;;;;;-144.57;100.00;62443.72;4952561;28;20057;-61
2023/06/16 09:08:28;;;;;;;7.90;5.65;;;;;;;-144.57;100.00;62443.72;4936603;29;20534;-62
2023/06/16 09:10:54;;;;;;;6.20;5.60;;;;;;;-144.57;100.00;62443.72;4953079;29;20055;-62
2023/06/16 09:13:20;;;;;;;7.82;5.20;;;;;;;-144.57;100.00;62443.72;4936177;29;20046;-62
2023/06/16 09:15:47;;;;;;;5.90;5.30;;;;;;;-144.57;100.00;62443.72;4935520;29;20526;-62
2023/06/16 09:18:14;;;;;;;13.07;5.50;;;;;;;-144.57;100.00;62443.72;4936211;29;20533;-62
2023/06/16 09:20:41;;;;;;;6.93;5.22;;;;;;;-144.57;100.00;62443.72;4953400;29;20141;-62
2023/06/16 09:23:08;;;;;;;6.28;5.25;;;;;;;-144.57;100.00;62443.72;4952622;29;20527;-62
2023/06/16 09:25:38;;;;;;;5.72;5.18;;;;;;;-144.57;100.00;62443.72;4952110;28;20051;-61
2023/06/16 09:28:09;;;;;;;7.15;5.18;;;;;;;-144.57;100.00;62443.72;4952748;29;20090;-63
2023/06/16 09:30:36;;;;;;;6.47;5.65;;;;;;;-144.57;100.00;62443.72;4952536;29;20070;-62
2023/06/16 09:33:02;;;;;;;6.40;5.80;;;;;;;-144.57;100.00;62443.72;4934714;29;20175;-63
2023/06/16 09:35:29;;;;;;;6.10;5.50;;;;;;;-144.57;100.00;62443.72;4952532;29;20417;-62
2023/06/16 09:38:00;;;;;;;8.60;5.85;;;;;;;-144.57;100.00;62443.72;4951926;28;20144;-63
2023/06/16 09:40:29;;;;;;;8.25;5.55;;;;;;;-144.57;100.00;62443.72;4952677;29;20074;-61
2023/06/16 09:42:59;;;;;;;6.13;5.53;;;;;;;-144.57;100.00;62443.72;4953348;29;20099;-62
2023/06/16 09:45:32;;;;;;;9.40;8.45;;;;;;;-144.57;100.00;62443.72;4935558;29;20082;-62
2023/06/16 09:48:05;;;;;;;18.85;14.35;;;;;;;-144.57;100.00;62443.72;4952699;29;20159;-62
2023/06/16 09:50:31;;;;;;;8.52;7.65;;;;;;;-144.57;100.00;62443.72;4934374;29;20051;-63
2023/06/16 09:52:57;;;;;;;27.45;24.73;;;;;;;-144.57;100.00;62443.72;4952944;29;20050;-62
2023/06/16 09:55:27;;;;;;;12.60;11.30;;;;;;;-144.57;100.00;62443.72;4952221;29;20182;-64
2023/06/16 09:57:53;;;;;;;10.05;7.60;;;;;;;-144.57;100.00;62443.72;4936202;29;20051;-61
2023/06/16 10:00:19;;;;;;;6.75;5.53;;;;;;;-144.57;100.00;62443.72;4951758;29;20556;-63
2023/06/16 10:02:50;;;;;;;6.10;5.47;;;;;;;-144.57;100.00;62443.72;4933635;29;20058;-64
2023/06/16 10:05:18;;;;;;;7.25;5.80;;;;;;;-144.57;100.00;62443.72;4952560;29;20043;-63
2023/06/16 10:07:51;;;;;;;7.20;5.82;;;;;;;-144.57;100.00;62443.72;4925580;29;20098;-61
2023/06/16 10:10:21;;;;;;;15.07;13.23;;;;;;;-144.57;100.00;62443.72;4925670;29;20087;-62
2023/06/16 10:12:51;;;;;;;9.93;6.90;;;;;;;-144.57;100.00;62443.72;4933718;29;20039;-65
2023/06/16 10:15:22;;;;;;;6.18;5.40;;;;;;;-144.57;100.00;62443.72;4933975;29;20039;-61
2023/06/16 10:17:49;;;;;;;7.78;5.40;;;;;;;-144.57;100.00;62443.72;4950150;28;20043;-62
2023/06/16 10:20:25;;;;;;;9.20;6.13;;;;;;;-144.57;100.00;62443.72;4919584;29;20085;-64
2023/06/16 10:22:51;;;;;;;8.13;5.00;;;;;;;-144.57;100.00;62443.72;4951974;29;20043;-61
2023/06/16 10:25:18;;;;;;;8.35;5.72;;;;;;;-144.57;100.00;62443.72;4934692;29;20054;-62
2023/06/16 10:27:44;;;;;;;7.95;5.28;;;;;;;-144.57;100.00;62443.72;4934633;29;20094;-62
2023/06/16 10:30:16;;;;;;;6.60;5.38;;;;;;;-144.57;100.00;62443.72;4918931;29;20123;-62
2023/06/16 10:32:49;;;;;;;6.38;5.35;;;;;;;-144.57;100.00;62443.72;4942631;29;20106;-62
2023/06/16 10:35:17;;;;;;;8.38;5.75;;;;;;;-144.57;100.00;62443.72;4939943;29;20039;-61
2023/06/16 10:37:43;;;;;;;7.05;5.35;;;;;;;-144.57;100.00;62443.72;4951661;29;20090;-60
2023/06/16 10:40:12;;;;;;;7.93;5.75;;;;;;;-144.57;100.00;62443.72;4917782;29;20043;-61
2023/06/16 10:42:40;;;;;;;7.27;5.23;;;;;;;-144.57;100.00;62443.72;4950018;28;20055;-62
2023/06/16 10:45:25;;;;;;;6.18;5.40;;;;;;;-144.57;100.00;62443.72;4951591;29;20051;-62
2023/06/16 10:48:05;;;;;;;6.40;5.43;;;;;;;-144.57;100.00;62443.72;4950551;29;20074;-62
2023/06/16 10:50:32;;;;;;;8.93;5.40;;;;;;;-144.57;100.00;62443.72;4950507;29;20047;-61
2023/06/16 10:53:11;;;;;;;7.45;5.10;;;;;;;-144.57;100.00;62443.72;4927017;29;20062;-64
2023/06/16 10:55:39;;;;;;;7.63;5.50;;;;;;;-144.57;100.00;62443.72;4950778;29;20342;-63
2023/06/16 10:58:16;;;;;;;7.43;5.95;;;;;;;-144.57;100.00;62443.72;4949114;29;20058;-63
2023/06/16 11:00:42;;;;;;;5.75;5.15;;;;;;;-144.57;100.00;62443.72;4950010;29;20036;-62
2023/06/16 11:03:07;;;;;;;11.75;10.13;;;;;;;-144.57;100.00;62443.72;4950120;29;20417;-64
2023/06/16 11:05:37;;;;;;;6.95;6.25;;;;;;;-144.57;100.00;62443.72;4931479;29;20035;-63
2023/06/16 11:08:05;;;;;;;8.32;5.65;;;;;;;-144.57;100.00;62443.72;4924085;29;20047;-63
2023/06/16 11:10:52;;;;;;;6.38;5.70;;;;;;;-144.57;100.00;62443.72;4948113;29;20055;-61